sensor_id;sensor_type;location;lat;lon;timestamp;pressure;altitude;pressure_sealevel;temperature;humidity
27729;BME280;15126;42.186;24.340;2023-05-12T00:01:45;99787.28;;;12.03;75.86
27729;BME280;15126;42.186;24.340;2023-05-12T00:04:12;99788.56;;;11.99;74.86
27729;BME280;15126;42.186;24.340;2023-05-12T00:06:39;99795.59;;;11.87;75.67
27729;BME280;15126;42.186;24.340;2023-05-12T00:09:07;99795.50;;;11.90;76.27
27729;BME280;15126;42.186;24.340;2023-05-12T00:11:35;99786.47;;;11.83;76.04
27729;BME280;15126;42.186;24.340;2023-05-12T00:14:02;99791.50;;;11.91;75.92
27729;BME280;15126;42.186;24.340;2023-05-12T00:16:29;99792.25;;;11.96;75.94
27729;BME280;15126;42.186;24.340;2023-05-12T00:18:56;99782.22;;;11.98;76.17
27729;BME280;15126;42.186;24.340;2023-05-12T00:21:23;99790.66;;;11.94;76.52
27729;BME280;15126;42.186;24.340;2023-05-12T00:23:50;99785.72;;;12.02;75.84
27729;BME280;15126;42.186;24.340;2023-05-12T00:26:18;99782.41;;;12.07;75.46
27729;BME280;15126;42.186;24.340;2023-05-12T00:28:45;99786.94;;;12.01;75.83
27729;BME280;15126;42.186;24.340;2023-05-12T00:31:13;99784.06;;;12.05;75.44
27729;BME280;15126;42.186;24.340;2023-05-12T00:33:40;99784.06;;;12.05;75.61
27729;BME280;15126;42.186;24.340;2023-05-12T00:36:07;99784.16;;;12.01;75.75
27729;BME280;15126;42.186;24.340;2023-05-12T00:38:34;99789.28;;;12.03;76.66
27729;BME280;15126;42.186;24.340;2023-05-12T00:41:01;99780.13;;;12.02;76.01
27729;BME280;15126;42.186;24.340;2023-05-12T00:43:30;99774.97;;;12.01;75.98
27729;BME280;15126;42.186;24.340;2023-05-12T00:45:58;99786.84;;;12.05;76.47
27729;BME280;15126;42.186;24.340;2023-05-12T00:48:25;99786.16;;;12.01;76.78
27729;BME280;15126;42.186;24.340;2023-05-12T00:50:53;99785.28;;;12.04;77.24
27729;BME280;15126;42.186;24.340;2023-05-12T00:53:20;99781.75;;;12.00;76.82
27729;BME280;15126;42.186;24.340;2023-05-12T00:55:47;99784.91;;;12.02;77.17
27729;BME280;15126;42.186;24.340;2023-05-12T00:58:14;99785.72;;;12.02;76.86
27729;BME280;15126;42.186;24.340;2023-05-12T01:00:42;99784.16;;;12.01;77.96
27729;BME280;15126;42.186;24.340;2023-05-12T01:03:09;99785.66;;;12.06;77.73
27729;BME280;15126;42.186;24.340;2023-05-12T01:05:41;99792.94;;;12.00;77.04
27729;BME280;15126;42.186;24.340;2023-05-12T01:08:13;99793.28;;;12.02;76.59
27729;BME280;15126;42.186;24.340;2023-05-12T01:10:43;99796.53;;;12.00;77.68
27729;BME280;15126;42.186;24.340;2023-05-12T01:13:10;99795.75;;;12.00;77.39
27729;BME280;15126;42.186;24.340;2023-05-12T01:15:40;99800.13;;;12.01;77.02
27729;BME280;15126;42.186;24.340;2023-05-12T01:18:10;99789.06;;;11.93;77.02
27729;BME280;15126;42.186;24.340;2023-05-12T01:20:37;99795.38;;;11.98;77.35
27729;BME280;15126;42.186;24.340;2023-05-12T01:23:04;99785.13;;;11.91;76.69
27729;BME280;15126;42.186;24.340;2023-05-12T01:25:32;99783.25;;;11.84;76.91
27729;BME280;15126;42.186;24.340;2023-05-12T01:28:01;99754.41;;;11.68;77.55
27729;BME280;15126;42.186;24.340;2023-05-12T01:30:28;99784.22;;;11.74;77.57
27729;BME280;15126;42.186;24.340;2023-05-12T01:32:57;99787.41;;;11.76;78.01
27729;BME280;15126;42.186;24.340;2023-05-12T01:35:24;99778.22;;;11.76;78.45
27729;BME280;15126;42.186;24.340;2023-05-12T01:37:51;99788.31;;;11.70;77.69
27729;BME280;15126;42.186;24.340;2023-05-12T01:40:18;99783.06;;;11.72;78.36
27729;BME280;15126;42.186;24.340;2023-05-12T01:42:46;99790.31;;;11.69;78.79
27729;BME280;15126;42.186;24.340;2023-05-12T01:45:14;99787.41;;;11.76;78.42
27729;BME280;15126;42.186;24.340;2023-05-12T01:47:41;99784.97;;;11.78;77.84
27729;BME280;15126;42.186;24.340;2023-05-12T01:50:08;99784.22;;;11.74;78.32
27729;BME280;15126;42.186;24.340;2023-05-12T01:52:35;99777.06;;;11.73;78.56
27729;BME280;15126;42.186;24.340;2023-05-12T01:55:05;99785.31;;;11.80;77.87
27729;BME280;15126;42.186;24.340;2023-05-12T01:57:32;99784.97;;;11.78;78.94
27729;BME280;15126;42.186;24.340;2023-05-12T01:59:59;99776.69;;;11.71;78.36
27729;BME280;15126;42.186;24.340;2023-05-12T02:02:27;99779.03;;;11.76;79.50
27729;BME280;15126;42.186;24.340;2023-05-12T02:04:55;99779.38;;;11.78;79.03
27729;BME280;15126;42.186;24.340;2023-05-12T02:07:22;99781.44;;;11.74;79.37
27729;BME280;15126;42.186;24.340;2023-05-12T02:09:49;99776.16;;;11.80;79.52
27729;BME280;15126;42.186;24.340;2023-05-12T02:12:16;99763.81;;;11.77;79.39
27729;BME280;15126;42.186;24.340;2023-05-12T02:14:43;99764.56;;;11.81;79.69
27729;BME280;15126;42.186;24.340;2023-05-12T02:17:10;99768.56;;;11.80;78.75
27729;BME280;15126;42.186;24.340;2023-05-12T02:19:38;99775.84;;;11.74;78.76
27729;BME280;15126;42.186;24.340;2023-05-12T02:22:05;99770.69;;;11.73;78.78
27729;BME280;15126;42.186;24.340;2023-05-12T02:24:32;99779.78;;;11.77;78.52
27729;BME280;15126;42.186;24.340;2023-05-12T02:26:59;99779.38;;;11.78;78.91
27729;BME280;15126;42.186;24.340;2023-05-12T02:29:27;99778.22;;;11.76;78.13
27729;BME280;15126;42.186;24.340;2023-05-12T02:31:54;99771.06;;;11.75;78.32
27729;BME280;15126;42.186;24.340;2023-05-12T02:34:21;99775.50;;;11.72;77.84
27729;BME280;15126;42.186;24.340;2023-05-12T02:36:49;99774.19;;;11.77;78.13
27729;BME280;15126;42.186;24.340;2023-05-12T02:39:16;99775.97;;;11.67;78.33
27729;BME280;15126;42.186;24.340;2023-05-12T02:41:43;99781.53;;;11.67;78.55
27729;BME280;15126;42.186;24.340;2023-05-12T02:44:10;99781.59;;;11.64;78.84
27729;BME280;15126;42.186;24.340;2023-05-12T02:46:36;99780.44;;;11.61;78.77
27729;BME280;15126;42.186;24.340;2023-05-12T02:49:03;99783.19;;;11.65;78.95
27729;BME280;15126;42.186;24.340;2023-05-12T02:51:30;99747.56;;;11.49;78.68
27729;BME280;15126;42.186;24.340;2023-05-12T02:53:58;99786.72;;;11.69;78.70
27729;BME280;15126;42.186;24.340;2023-05-12T02:56:25;99787.09;;;11.71;78.04
27729;BME280;15126;42.186;24.340;2023-05-12T02:58:52;99788.03;;;11.61;78.48
27729;BME280;15126;42.186;24.340;2023-05-12T03:01:19;99783.72;;;11.56;78.32
27729;BME280;15126;42.186;24.340;2023-05-12T03:03:46;99790.78;;;11.41;79.57
27729;BME280;15126;42.186;24.340;2023-05-12T03:06:13;99789.44;;;11.49;79.90
27729;BME280;15126;42.186;24.340;2023-05-12T03:08:39;99796.19;;;11.52;79.77
27729;BME280;15126;42.186;24.340;2023-05-12T03:11:08;99790.66;;;11.48;79.74
27729;BME280;15126;42.186;24.340;2023-05-12T03:13:35;99798.25;;;11.48;79.38
27729;BME280;15126;42.186;24.340;2023-05-12T03:16:02;99794.66;;;11.47;79.38
27729;BME280;15126;42.186;24.340;2023-05-12T03:18:29;99794.97;;;11.53;79.41
27729;BME280;15126;42.186;24.340;2023-05-12T03:20:55;99799.00;;;11.52;80.35
27729;BME280;15126;42.186;24.340;2023-05-12T03:23:22;99802.97;;;11.51;79.77
27729;BME280;15126;42.186;24.340;2023-05-12T03:25:49;99805.28;;;11.56;79.28
27729;BME280;15126;42.186;24.340;2023-05-12T03:28:17;99809.00;;;11.49;79.54
27729;BME280;15126;42.186;24.340;2023-05-12T03:30:44;99803.28;;;11.56;78.46
27729;BME280;15126;42.186;24.340;2023-05-12T03:33:11;99797.34;;;11.54;79.09
27729;BME280;15126;42.186;24.340;2023-05-12T03:35:38;99798.59;;;11.50;78.90
27729;BME280;15126;42.186;24.340;2023-05-12T03:38:05;99806.53;;;11.55;78.55
27729;BME280;15126;42.186;24.340;2023-05-12T03:40:32;99811.31;;;11.54;79.37
27729;BME280;15126;42.186;24.340;2023-05-12T03:42:59;99813.31;;;11.54;79.30
27729;BME280;15126;42.186;24.340;2023-05-12T03:45:27;99826.44;;;11.57;79.00
27729;BME280;15126;42.186;24.340;2023-05-12T03:47:54;99830.31;;;11.63;79.41
27729;BME280;15126;42.186;24.340;2023-05-12T03:50:21;99822.34;;;11.61;79.66
27729;BME280;15126;42.186;24.340;2023-05-12T03:52:47;99821.50;;;11.64;79.28
27729;BME280;15126;42.186;24.340;2023-05-12T03:55:14;99818.41;;;11.59;78.80
27729;BME280;15126;42.186;24.340;2023-05-12T03:57:41;99821.50;;;11.64;78.63
27729;BME280;15126;42.186;24.340;2023-05-12T04:00:09;99827.44;;;11.70;78.88
27729;BME280;15126;42.186;24.340;2023-05-12T04:02:38;99823.84;;;11.69;78.64
27729;BME280;15126;42.186;24.340;2023-05-12T04:05:06;99826.38;;;11.60;78.45
27729;BME280;15126;42.186;24.340;2023-05-12T04:07:34;99827.84;;;11.68;78.28
27729;BME280;15126;42.186;24.340;2023-05-12T04:10:01;99824.94;;;11.75;78.93
27729;BME280;15126;42.186;24.340;2023-05-12T04:12:30;99835.25;;;11.78;78.56
27729;BME280;15126;42.186;24.340;2023-05-12T04:14:57;99835.81;;;11.70;79.27
27729;BME280;15126;42.186;24.340;2023-05-12T04:17:24;99831.38;;;11.72;79.21
27729;BME280;15126;42.186;24.340;2023-05-12T04:19:53;99826.03;;;11.81;79.09
27729;BME280;15126;42.186;24.340;2023-05-12T04:22:19;99834.81;;;11.80;78.99
27729;BME280;15126;42.186;24.340;2023-05-12T04:24:47;99834.41;;;11.81;79.06
27729;BME280;15126;42.186;24.340;2023-05-12T04:27:14;99831.63;;;11.81;78.90
27729;BME280;15126;42.186;24.340;2023-05-12T04:29:41;99825.59;;;11.83;78.46
27729;BME280;15126;42.186;24.340;2023-05-12T04:32:08;99796.09;;;11.55;78.21
27729;BME280;15126;42.186;24.340;2023-05-12T04:34:35;99829.97;;;11.84;78.82
27729;BME280;15126;42.186;24.340;2023-05-12T04:37:03;99826.75;;;11.85;77.45
27729;BME280;15126;42.186;24.340;2023-05-12T04:39:30;99824.44;;;11.80;77.76
27729;BME280;15126;42.186;24.340;2023-05-12T04:41:59;99821.28;;;11.78;78.41
27729;BME280;15126;42.186;24.340;2023-05-12T04:44:26;99823.25;;;11.81;79.12
27729;BME280;15126;42.186;24.340;2023-05-12T04:46:53;99823.72;;;11.76;78.92
27729;BME280;15126;42.186;24.340;2023-05-12T04:49:20;99830.09;;;11.77;78.68
27729;BME280;15126;42.186;24.340;2023-05-12T04:51:47;99828.38;;;11.83;79.64
27729;BME280;15126;42.186;24.340;2023-05-12T04:54:15;99828.53;;;11.76;78.50
27729;BME280;15126;42.186;24.340;2023-05-12T04:56:42;99828.75;;;11.85;78.36
27729;BME280;15126;42.186;24.340;2023-05-12T04:59:09;99826.63;;;11.92;79.04
27729;BME280;15126;42.186;24.340;2023-05-12T05:01:36;99830.13;;;11.97;78.69
27729;BME280;15126;42.186;24.340;2023-05-12T05:04:06;99801.28;;;12.03;79.65
27729;BME280;15126;42.186;24.340;2023-05-12T05:06:33;99827.72;;;12.18;77.61
27729;BME280;15126;42.186;24.340;2023-05-12T05:09:00;99823.06;;;12.31;77.65
27729;BME280;15126;42.186;24.340;2023-05-12T05:11:28;99821.84;;;12.32;76.49
27729;BME280;15126;42.186;24.340;2023-05-12T05:13:54;99819.19;;;12.45;76.19
27729;BME280;15126;42.186;24.340;2023-05-12T05:16:21;99825.88;;;12.51;76.36
27729;BME280;15126;42.186;24.340;2023-05-12T05:18:48;99820.22;;;12.54;75.11
27729;BME280;15126;42.186;24.340;2023-05-12T05:21:15;99831.13;;;12.49;75.10
27729;BME280;15126;42.186;24.340;2023-05-12T05:23:42;99834.47;;;12.60;76.25
27729;BME280;15126;42.186;24.340;2023-05-12T05:26:09;99826.72;;;12.48;75.86
27729;BME280;15126;42.186;24.340;2023-05-12T05:28:37;99834.47;;;12.60;75.61
27729;BME280;15126;42.186;24.340;2023-05-12T05:31:04;99829.16;;;12.66;74.69
27729;BME280;15126;42.186;24.340;2023-05-12T05:33:31;99820.78;;;12.66;76.57
27729;BME280;15126;42.186;24.340;2023-05-12T05:35:58;99830.59;;;12.74;75.15
27729;BME280;15126;42.186;24.340;2023-05-12T05:38:25;99835.09;;;12.87;76.79
27729;BME280;15126;42.186;24.340;2023-05-12T05:40:52;99835.78;;;12.91;75.01
27729;BME280;15126;42.186;24.340;2023-05-12T05:43:20;99840.38;;;13.01;74.72
27729;BME280;15126;42.186;24.340;2023-05-12T05:45:48;99847.84;;;13.08;75.25
27729;BME280;15126;42.186;24.340;2023-05-12T05:48:15;99838.66;;;13.07;74.52
27729;BME280;15126;42.186;24.340;2023-05-12T05:50:42;99850.94;;;13.13;74.83
27729;BME280;15126;42.186;24.340;2023-05-12T05:53:09;99854.28;;;13.25;74.33
27729;BME280;15126;42.186;24.340;2023-05-12T05:55:36;99850.59;;;13.28;74.26
27729;BME280;15126;42.186;24.340;2023-05-12T05:58:03;99846.06;;;13.34;74.84
27729;BME280;15126;42.186;24.340;2023-05-12T06:00:30;99853.59;;;13.37;73.39
27729;BME280;15126;42.186;24.340;2023-05-12T06:02:58;99842.53;;;13.30;73.35
27729;BME280;15126;42.186;24.340;2023-05-12T06:05:25;99839.59;;;13.37;74.21
27729;BME280;15126;42.186;24.340;2023-05-12T06:07:52;99831.34;;;13.46;74.42
27729;BME280;15126;42.186;24.340;2023-05-12T06:10:19;99838.34;;;13.54;74.22
27729;BME280;15126;42.186;24.340;2023-05-12T06:12:46;99841.78;;;13.78;73.71
27729;BME280;15126;42.186;24.340;2023-05-12T06:15:13;99839.59;;;13.69;72.24
27729;BME280;15126;42.186;24.340;2023-05-12T06:17:40;99853.34;;;13.80;72.31
27729;BME280;15126;42.186;24.340;2023-05-12T06:20:09;99841.84;;;13.90;74.62
27729;BME280;15126;42.186;24.340;2023-05-12T06:22:37;99856.03;;;13.99;72.23
27729;BME280;15126;42.186;24.340;2023-05-12T06:25:07;99838.75;;;14.01;72.55
27729;BME280;15126;42.186;24.340;2023-05-12T06:27:34;99842.19;;;13.76;71.98
27729;BME280;15126;42.186;24.340;2023-05-12T06:30:00;99853.56;;;14.01;73.03
27729;BME280;15126;42.186;24.340;2023-05-12T06:32:28;99853.56;;;14.01;73.39
27729;BME280;15126;42.186;24.340;2023-05-12T06:34:55;99862.50;;;14.12;72.75
27729;BME280;15126;42.186;24.340;2023-05-12T06:37:23;99862.84;;;13.98;72.27
27729;BME280;15126;42.186;24.340;2023-05-12T06:39:50;99862.69;;;13.89;72.15
27729;BME280;15126;42.186;24.340;2023-05-12T06:42:17;99864.78;;;14.01;73.24
27729;BME280;15126;42.186;24.340;2023-05-12T06:44:44;99863.72;;;14.11;72.25
27729;BME280;15126;42.186;24.340;2023-05-12T06:47:11;99869.56;;;14.17;72.09
27729;BME280;15126;42.186;24.340;2023-05-12T06:49:37;99871.94;;;14.02;71.30
27729;BME280;15126;42.186;24.340;2023-05-12T06:52:05;99871.84;;;14.22;72.47
27729;BME280;15126;42.186;24.340;2023-05-12T06:54:33;99861.44;;;14.06;70.12
27729;BME280;15126;42.186;24.340;2023-05-12T06:57:00;99872.97;;;14.24;70.15
27729;BME280;15126;42.186;24.340;2023-05-12T06:59:27;99874.88;;;13.99;69.71
27729;BME280;15126;42.186;24.340;2023-05-12T07:01:54;99869.84;;;14.06;72.11
27729;BME280;15126;42.186;24.340;2023-05-12T07:04:20;99870.56;;;13.94;71.38
27729;BME280;15126;42.186;24.340;2023-05-12T07:06:47;99871.81;;;13.93;71.72
27729;BME280;15126;42.186;24.340;2023-05-12T07:09:14;99857.06;;;14.05;70.52
27729;BME280;15126;42.186;24.340;2023-05-12T07:11:44;99872.09;;;14.27;72.53
27729;BME280;15126;42.186;24.340;2023-05-12T07:14:11;99868.78;;;14.16;68.40
27729;BME280;15126;42.186;24.340;2023-05-12T07:16:38;99867.41;;;14.08;69.18
27729;BME280;15126;42.186;24.340;2023-05-12T07:19:04;99863.63;;;14.15;70.36
27729;BME280;15126;42.186;24.340;2023-05-12T07:21:33;99865.69;;;14.27;70.43
27729;BME280;15126;42.186;24.340;2023-05-12T07:24:00;99857.97;;;14.31;70.38
27729;BME280;15126;42.186;24.340;2023-05-12T07:26:27;99853.25;;;14.57;70.91
27729;BME280;15126;42.186;24.340;2023-05-12T07:28:55;99859.03;;;14.78;71.26
27729;BME280;15126;42.186;24.340;2023-05-12T07:31:25;99861.63;;;14.73;69.47
27729;BME280;15126;42.186;24.340;2023-05-12T07:33:51;99859.72;;;14.82;68.87
27729;BME280;15126;42.186;24.340;2023-05-12T07:36:19;99853.31;;;14.82;67.75
27729;BME280;15126;42.186;24.340;2023-05-12T07:38:46;99867.50;;;14.91;68.01
27729;BME280;15126;42.186;24.340;2023-05-12T07:41:12;99842.22;;;15.04;66.46
27729;BME280;15126;42.186;24.340;2023-05-12T07:43:39;99858.75;;;15.14;69.70
27729;BME280;15126;42.186;24.340;2023-05-12T07:46:07;99851.44;;;15.17;67.23
27729;BME280;15126;42.186;24.340;2023-05-12T07:48:34;99865.97;;;15.03;63.51
27729;BME280;15126;42.186;24.340;2023-05-12T07:51:04;99857.63;;;14.99;66.06
27729;BME280;15126;42.186;24.340;2023-05-12T07:53:31;99852.56;;;15.19;65.17
27729;BME280;15126;42.186;24.340;2023-05-12T07:55:57;99855.16;;;15.39;67.87
27729;BME280;15126;42.186;24.340;2023-05-12T07:58:25;99861.22;;;15.25;64.45
27729;BME280;15126;42.186;24.340;2023-05-12T08:00:51;99863.47;;;15.17;64.66
27729;BME280;15126;42.186;24.340;2023-05-12T08:03:20;99859.00;;;15.20;65.72
27729;BME280;15126;42.186;24.340;2023-05-12T08:05:46;99858.09;;;15.10;65.86
27729;BME280;15126;42.186;24.340;2023-05-12T08:08:15;99856.75;;;15.40;66.19
27729;BME280;15126;42.186;24.340;2023-05-12T08:10:42;99859.44;;;15.31;66.47
27729;BME280;15126;42.186;24.340;2023-05-12T08:13:09;99854.72;;;15.66;63.28
27729;BME280;15126;42.186;24.340;2023-05-12T08:15:36;99826.38;;;15.60;62.03
27729;BME280;15126;42.186;24.340;2023-05-12T08:18:03;99851.28;;;15.96;60.79
27729;BME280;15126;42.186;24.340;2023-05-12T08:20:31;99857.81;;;16.05;62.28
27729;BME280;15126;42.186;24.340;2023-05-12T08:22:59;99853.94;;;16.12;61.87
27729;BME280;15126;42.186;24.340;2023-05-12T08:25:26;99857.69;;;16.31;62.51
27729;BME280;15126;42.186;24.340;2023-05-12T08:27:54;99860.66;;;16.27;62.84
27729;BME280;15126;42.186;24.340;2023-05-12T08:30:22;99852.50;;;16.07;59.62
27729;BME280;15126;42.186;24.340;2023-05-12T08:32:49;99857.19;;;15.38;62.80
27729;BME280;15126;42.186;24.340;2023-05-12T08:35:16;99857.09;;;15.55;63.70
27729;BME280;15126;42.186;24.340;2023-05-12T08:37:48;99857.06;;;15.80;61.58
27729;BME280;15126;42.186;24.340;2023-05-12T08:40:19;99855.41;;;15.70;59.85
27729;BME280;15126;42.186;24.340;2023-05-12T08:42:50;99856.06;;;15.74;62.14
27729;BME280;15126;42.186;24.340;2023-05-12T08:45:20;99848.09;;;15.72;60.26
27729;BME280;15126;42.186;24.340;2023-05-12T08:47:48;99841.19;;;15.86;59.85
27729;BME280;15126;42.186;24.340;2023-05-12T08:50:16;99848.47;;;16.08;60.41
27729;BME280;15126;42.186;24.340;2023-05-12T08:52:47;99847.50;;;16.24;58.72
27729;BME280;15126;42.186;24.340;2023-05-12T08:55:15;99844.91;;;16.17;57.96
27729;BME280;15126;42.186;24.340;2023-05-12T08:57:44;99842.59;;;16.37;57.27
27729;BME280;15126;42.186;24.340;2023-05-12T09:00:13;99843.63;;;16.52;58.47
27729;BME280;15126;42.186;24.340;2023-05-12T09:02:41;99838.72;;;16.56;56.47
27729;BME280;15126;42.186;24.340;2023-05-12T09:05:09;99820.31;;;16.64;56.62
27729;BME280;15126;42.186;24.340;2023-05-12T09:07:41;99823.38;;;16.79;59.68
27729;BME280;15126;42.186;24.340;2023-05-12T09:10:15;99823.00;;;16.99;56.74
27729;BME280;15126;42.186;24.340;2023-05-12T09:12:45;99828.50;;;17.02;55.72
27729;BME280;15126;42.186;24.340;2023-05-12T09:15:19;99830.28;;;17.09;56.81
27729;BME280;15126;42.186;24.340;2023-05-12T09:17:48;99829.22;;;16.94;62.43
27729;BME280;15126;42.186;24.340;2023-05-12T09:20:16;99808.19;;;16.77;57.14
27729;BME280;15126;42.186;24.340;2023-05-12T09:22:43;99829.47;;;17.08;57.06
27729;BME280;15126;42.186;24.340;2023-05-12T09:25:18;99825.31;;;17.22;59.05
27729;BME280;15126;42.186;24.340;2023-05-12T09:27:46;99815.34;;;17.39;57.32
27729;BME280;15126;42.186;24.340;2023-05-12T09:30:14;99827.81;;;16.89;55.28
27729;BME280;15126;42.186;24.340;2023-05-12T09:32:41;99826.97;;;16.80;58.67
27729;BME280;15126;42.186;24.340;2023-05-12T09:35:08;99821.88;;;16.96;55.84
27729;BME280;15126;42.186;24.340;2023-05-12T09:37:37;99821.31;;;17.41;56.56
27729;BME280;15126;42.186;24.340;2023-05-12T09:40:06;99825.78;;;17.60;54.69
27729;BME280;15126;42.186;24.340;2023-05-12T09:42:34;99817.53;;;17.84;59.63
27729;BME280;15126;42.186;24.340;2023-05-12T09:45:02;99816.59;;;18.05;55.45
27729;BME280;15126;42.186;24.340;2023-05-12T09:47:33;99813.50;;;18.12;53.89
27729;BME280;15126;42.186;24.340;2023-05-12T09:50:01;99817.38;;;18.24;54.61
27729;BME280;15126;42.186;24.340;2023-05-12T09:52:28;99806.25;;;18.38;57.28
27729;BME280;15126;42.186;24.340;2023-05-12T09:55:03;99800.47;;;18.42;57.53
27729;BME280;15126;42.186;24.340;2023-05-12T09:57:39;99806.75;;;18.55;53.99
27729;BME280;15126;42.186;24.340;2023-05-12T10:00:08;99795.75;;;18.57;56.82
27729;BME280;15126;42.186;24.340;2023-05-12T10:02:38;99802.59;;;18.83;54.46
27729;BME280;15126;42.186;24.340;2023-05-12T10:05:10;99804.66;;;18.74;49.36
27729;BME280;15126;42.186;24.340;2023-05-12T10:07:39;99791.03;;;18.54;50.55
27729;BME280;15126;42.186;24.340;2023-05-12T10:10:08;99793.56;;;18.52;52.35
27729;BME280;15126;42.186;24.340;2023-05-12T10:12:37;99802.94;;;18.67;54.28
27729;BME280;15126;42.186;24.340;2023-05-12T10:15:05;99775.97;;;18.48;49.57
27729;BME280;15126;42.186;24.340;2023-05-12T10:17:34;99808.25;;;18.83;52.50
27729;BME280;15126;42.186;24.340;2023-05-12T10:20:02;99784.75;;;18.59;50.43
27729;BME280;15126;42.186;24.340;2023-05-12T10:22:32;99797.31;;;18.58;49.89
27729;BME280;15126;42.186;24.340;2023-05-12T10:25:00;99793.53;;;18.43;49.79
27729;BME280;15126;42.186;24.340;2023-05-12T10:27:31;99799.22;;;18.52;50.50
27729;BME280;15126;42.186;24.340;2023-05-12T10:30:00;99790.09;;;18.57;49.72
27729;BME280;15126;42.186;24.340;2023-05-12T10:32:28;99792.59;;;18.64;48.41
27729;BME280;15126;42.186;24.340;2023-05-12T10:35:06;99787.88;;;18.70;50.39
27729;BME280;15126;42.186;24.340;2023-05-12T10:37:34;99791.31;;;18.74;49.81
27729;BME280;15126;42.186;24.340;2023-05-12T10:40:02;99797.56;;;18.78;50.53
27729;BME280;15126;42.186;24.340;2023-05-12T10:42:36;99791.97;;;18.69;48.03
27729;BME280;15126;42.186;24.340;2023-05-12T10:45:14;99783.28;;;18.82;48.68
27729;BME280;15126;42.186;24.340;2023-05-12T10:47:42;99790.41;;;18.41;48.11
27729;BME280;15126;42.186;24.340;2023-05-12T10:50:09;99782.72;;;18.60;47.89
27729;BME280;15126;42.186;24.340;2023-05-12T10:52:38;99789.13;;;18.69;46.48
27729;BME280;15126;42.186;24.340;2023-05-12T10:55:10;99785.38;;;18.63;52.17
27729;BME280;15126;42.186;24.340;2023-05-12T10:57:48;99770.31;;;18.66;49.63
27729;BME280;15126;42.186;24.340;2023-05-12T11:00:21;99785.19;;;18.76;48.10
27729;BME280;15126;42.186;24.340;2023-05-12T11:02:50;99764.78;;;18.72;46.02
27729;BME280;15126;42.186;24.340;2023-05-12T11:05:17;99775.75;;;18.79;48.42
27729;BME280;15126;42.186;24.340;2023-05-12T11:07:47;99758.47;;;18.86;48.31
27729;BME280;15126;42.186;24.340;2023-05-12T11:10:14;99779.00;;;18.95;49.05
27729;BME280;15126;42.186;24.340;2023-05-12T11:12:42;99779.50;;;18.85;45.83
27729;BME280;15126;42.186;24.340;2023-05-12T11:15:10;99777.63;;;18.91;45.00
27729;BME280;15126;42.186;24.340;2023-05-12T11:17:39;99772.03;;;18.64;44.76
27729;BME280;15126;42.186;24.340;2023-05-12T11:20:07;99765.88;;;18.74;45.22
27729;BME280;15126;42.186;24.340;2023-05-12T11:22:35;99760.75;;;18.64;46.69
27729;BME280;15126;42.186;24.340;2023-05-12T11:25:08;99782.50;;;18.81;48.34
27729;BME280;15126;42.186;24.340;2023-05-12T11:27:35;99774.59;;;18.94;45.25
27729;BME280;15126;42.186;24.340;2023-05-12T11:30:04;99771.25;;;18.63;46.53
27729;BME280;15126;42.186;24.340;2023-05-12T11:32:31;99766.69;;;18.75;46.18
27729;BME280;15126;42.186;24.340;2023-05-12T11:35:11;99766.03;;;18.71;47.41
27729;BME280;15126;42.186;24.340;2023-05-12T11:37:39;99764.59;;;18.75;46.38
27729;BME280;15126;42.186;24.340;2023-05-12T11:40:17;99761.38;;;19.00;46.57
27729;BME280;15126;42.186;24.340;2023-05-12T11:42:46;99758.09;;;18.51;46.19
27729;BME280;15126;42.186;24.340;2023-05-12T11:45:23;99746.16;;;18.56;47.09
27729;BME280;15126;42.186;24.340;2023-05-12T11:47:51;99743.00;;;18.63;45.71
27729;BME280;15126;42.186;24.340;2023-05-12T11:50:23;99746.25;;;18.71;47.43
27729;BME280;15126;42.186;24.340;2023-05-12T11:52:51;99742.06;;;18.48;44.20
27729;BME280;15126;42.186;24.340;2023-05-12T11:55:20;99739.19;;;18.75;45.51
27729;BME280;15126;42.186;24.340;2023-05-12T11:57:56;99740.63;;;18.62;43.25
27729;BME280;15126;42.186;24.340;2023-05-12T12:00:29;99739.16;;;18.84;46.16
27729;BME280;15126;42.186;24.340;2023-05-12T12:03:07;99741.97;;;18.93;45.58
27729;BME280;15126;42.186;24.340;2023-05-12T12:05:43;99749.75;;;19.08;43.32
27729;BME280;15126;42.186;24.340;2023-05-12T12:08:12;99743.63;;;19.33;44.75
27729;BME280;15126;42.186;24.340;2023-05-12T12:10:42;99737.97;;;19.42;44.85
27729;BME280;15126;42.186;24.340;2023-05-12T12:13:10;99723.75;;;19.51;45.35
27729;BME280;15126;42.186;24.340;2023-05-12T12:15:36;99732.66;;;19.35;45.24
27729;BME280;15126;42.186;24.340;2023-05-12T12:18:03;99744.69;;;19.44;43.95
27729;BME280;15126;42.186;24.340;2023-05-12T12:20:30;99736.59;;;19.28;43.21
27729;BME280;15126;42.186;24.340;2023-05-12T12:22:58;99738.81;;;18.91;42.32
27729;BME280;15126;42.186;24.340;2023-05-12T12:25:25;99735.09;;;18.76;42.99
27729;BME280;15126;42.186;24.340;2023-05-12T12:27:52;99706.69;;;18.71;43.99
27729;BME280;15126;42.186;24.340;2023-05-12T12:30:19;99728.47;;;18.88;44.26
27729;BME280;15126;42.186;24.340;2023-05-12T12:32:45;99727.72;;;18.79;43.46
27729;BME280;15126;42.186;24.340;2023-05-12T12:35:13;99733.94;;;18.50;45.44
27729;BME280;15126;42.186;24.340;2023-05-12T12:37:40;99745.03;;;18.54;42.94
27729;BME280;15126;42.186;24.340;2023-05-12T12:40:09;99735.63;;;18.57;44.53
27729;BME280;15126;42.186;24.340;2023-05-12T12:42:37;99738.84;;;18.82;42.73
27729;BME280;15126;42.186;24.340;2023-05-12T12:45:06;99724.69;;;18.91;40.27
27729;BME280;15126;42.186;24.340;2023-05-12T12:47:34;99734.31;;;19.18;41.12
27729;BME280;15126;42.186;24.340;2023-05-12T12:50:03;99729.25;;;19.22;41.97
27729;BME280;15126;42.186;24.340;2023-05-12T12:52:38;99737.03;;;19.36;40.71
27729;BME280;15126;42.186;24.340;2023-05-12T12:55:07;99729.78;;;19.44;42.23